Data for 08/29/2018

Time Sea-Level Adjusted Pressure Absolute Pressure Temperature Relative Humidity Dew Point   
(mb) (inHg) (mb) (inHg) (C) (F) (%) (C) (F)
00:05 1021 30.15 850 25.1 8.8 47.8 63 2.2 36
00:10 1021 30.15 850 25.1 8.7 47.6 64 2.3 36.1
00:15 1021 30.15 850 25.1 8.6 47.5 64 2.2 36
00:20 1021 30.15 850 25.1 8.5 47.2 64 2.1 35.7
00:25 1021 30.15 850 25.1 8.7 47.7 62 1.8 35.2
00:30 1021 30.15 850 25.1 9 48.2 61 1.9 35.4
00:35 1021 30.15 850 25.1 9.2 48.5 60 1.8 35.3
00:40 1021 30.15 850 25.1 9.2 48.6 60 1.8 35.3
00:45 1021 30.15 850 25.1 9.3 48.7 60 2 35.6
00:50 1021 30.15 850 25.1 9.2 48.5 59 1.7 35
00:55 1021 30.15 850 25.1 9.2 48.5 61 2.1 35.8
01:00 1021 30.15 850 25.1 9 48.1 60 1.7 35.1
01:05 1021 30.15 850 25.1 9 48.2 61 1.9 35.4
01:10 1021 30.15 850 25.1 9.2 48.5 59 1.6 34.8
01:15 1021 30.15 850 25.1 9.4 48.8 58 1.6 34.9
01:20 1021 30.15 850 25.1 9.5 49.1 58 1.7 35
01:25 1021 30.15 850 25.1 9.4 49 59 1.8 35.2
01:30 1021 30.15 850 25.1 9.4 48.8 58 1.6 34.8
01:35 1021 30.15 850 25.1 9.2 48.6 61 2 35.6
01:40 1021 30.15 850 25.1 8.7 47.6 63 2 35.6
01:45 1021 30.15 850 25.1 8.4 47.1 63 1.8 35.3
01:50 1021 30.15 850 25.1 8.5 47.4 61 1.4 34.6
01:55 1021 30.15 850 25.1 8.9 47.9 61 1.8 35.2
02:00 1021 30.15 850 25.1 8.6 47.6 62 1.7 35.1
02:05 1021 30.15 850 25.1 8.6 47.5 61 1.6 35
02:10 1021 30.15 850 25.1 8.6 47.5 60 1.4 34.6
02:15 1021 30.15 850 25.1 8.9 48 61 1.7 35.1
02:20 1021 30.15 850 25.1 8.6 47.5 63 1.9 35.5
02:25 1021 30.15 850 25.1 8.3 46.9 64 1.9 35.3
02:30 1021 30.15 850 25.1 8.1 46.6 64 1.7 35.1
02:35 1021 30.15 850 25.1 7.9 46.2 66 1.9 35.4
02:40 1021 30.15 850 25.1 7.6 45.7 66 1.8 35.2
02:45 1020 30.12 850 25.1 7.7 45.8 65 1.6 34.8
02:50 1020 30.12 850 25.1 7.7 45.9 66 1.7 35.1
02:55 1021 30.15 850 25.1 7.6 45.7 66 1.7 35
03:00 1020 30.12 850 25.1 7.5 45.5 66 1.7 35
03:05 1020 30.12 850 25.1 7.5 45.6 67 1.8 35.2
03:10 1020 30.12 850 25.1 7.4 45.2 67 1.7 35.1
03:15 1020 30.12 850 25.1 7.3 45.1 67 1.7 35
03:20 1020 30.12 850 25.1 7.4 45.3 67 1.8 35.2
03:25 1020 30.12 850 25.1 7.4 45.4 65 1.4 34.5
03:30 1020 30.12 850 25.1 7.7 45.8 66 1.7 35.1
03:35 1020 30.12 850 25.1 7.6 45.6 67 1.8 35.2
03:40 1020 30.12 850 25.1 7.1 44.8 70 2.1 35.8
03:45 1020 30.12 850 25.1 6.5 43.7 72 1.8 35.3
03:50 1020 30.12 850 25.1 6.4 43.5 70 1.4 34.6
03:55 1020 30.12 850 25.1 6.9 44.4 68 1.5 34.7
04:00 1020 30.12 850 25.1 7 44.6 67 1.3 34.4
04:05 1020 30.12 850 25.1 7.1 44.7 67 1.4 34.6
04:10 1020 30.12 850 25.1 7 44.6 68 1.6 34.9
04:15 1020 30.12 850 25.1 6.6 44 70 1.5 34.8
04:20 1020 30.12 850 25.1 6.8 44.2 68 1.4 34.5
04:25 1020 30.12 850 25.1 6.8 44.2 69 1.5 34.6
04:30 1020 30.12 850 25.1 6.9 44.3 69 1.6 34.9
04:35 1020 30.12 850 25.1 6.7 44.1 67 1.1 34
04:40 1020 30.12 849 25.07 7.2 45 66 1.4 34.5
04:45 1020 30.12 849 25.07 7.1 44.8 67 1.4 34.5
04:50 1020 30.12 849 25.07 7.1 44.7 67 1.3 34.4
04:55 1020 30.12 849 25.07 7.1 44.8 66 1.3 34.3
05:00 1020 30.12 849 25.07 7.1 44.7 68 1.5 34.8
05:05 1020 30.12 849 25.07 6.7 44 70 1.6 34.8
05:10 1020 30.12 849 25.07 6.4 43.6 70 1.3 34.4
05:15 1020 30.12 849 25.07 6.6 43.9 69 1.4 34.5
05:20 1020 30.12 849 25.07 6.3 43.4 71 1.4 34.6
05:25 1020 30.12 849 25.07 6.2 43.1 70 1.2 34.1
05:30 1020 30.12 849 25.07 6.7 44 67 1.1 34
05:35 1020 30.12 849 25.07 7 44.5 66 1.1 34.1
05:40 1020 30.12 849 25.07 7.3 45.2 66 1.4 34.4
05:45 1020 30.12 849 25.07 7.1 44.7 67 1.4 34.5
05:50 1020 30.12 850 25.1 6.9 44.4 68 1.3 34.4
05:55 1020 30.12 850 25.1 7 44.6 67 1.3 34.3
06:00 1020 30.12 850 25.1 7.1 44.7 67 1.3 34.3
06:05 1020 30.12 849 25.07 7.1 44.8 67 1.3 34.4
06:10 1020 30.12 849 25.07 7 44.7 67 1.4 34.6
06:15 1020 30.12 849 25.07 7.1 44.7 67 1.3 34.4
06:20 1020 30.12 849 25.07 7.1 44.8 67 1.5 34.7
06:25 1020 30.12 849 25.07 7.2 44.9 67 1.5 34.8
06:30 1020 30.12 849 25.07 7.3 45.1 66 1.4 34.5
06:35 1020 30.12 849 25.07 7.6 45.7 65 1.5 34.7
06:40 1020 30.12 849 25.07 7.8 46 64 1.5 34.7
06:45 1020 30.12 849 25.07 7.9 46.3 65 1.7 35.1
06:50 1020 30.12 849 25.07 8.1 46.6 64 1.8 35.2
06:55 1020 30.12 849 25.07 8.2 46.8 64 1.9 35.3
07:00 1020 30.12 849 25.07 8.6 47.4 63 1.9 35.4
07:05 1020 30.12 849 25.07 9 48.1 61 1.8 35.2
07:10 1020 30.12 849 25.07 9.2 48.6 61 2.1 35.7
07:15 1020 30.12 849 25.07 9.8 49.6 58 1.9 35.5
07:20 1020 30.12 849 25.07 10 49.9 58 2.2 36
07:25 1020 30.12 849 25.07 10.2 50.4 57 2.2 36
07:30 1020 30.12 849 25.07 10.5 50.9 58 2.6 36.6
07:35 1020 30.12 849 25.07 10.5 51 57 2.4 36.3
07:40 1020 30.12 849 25.07 10.9 51.7 55 2.4 36.3
07:45 1020 30.12 849 25.07 11.3 52.4 53 2.1 35.9
07:50 1020 30.12 849 25.07 11.8 53.2 54 2.7 36.9
07:55 1020 30.12 849 25.07 12.3 54.2 51 2.5 36.4
08:00 1020 30.12 849 25.07 12.4 54.2 51 2.6 36.7
08:05 1020 30.12 849 25.07 12.9 55.3 51 3 37.4
08:10 1020 30.12 849 25.07 13.3 55.9 47 2.2 36
08:15 1020 30.12 849 25.07 13.1 55.5 49 2.8 37
08:20 1020 30.12 849 25.07 13.3 56 48 2.7 36.8
08:25 1020 30.12 849 25.07 13.7 56.7 49 3.4 38.1
08:30 1020 30.12 849 25.07 13.9 56.9 47 2.8 37.1
08:35 1020 30.12 849 25.07 14.5 58.1 47 3.3 38
08:40 1020 30.12 849 25.07 15 59.1 46 3.7 38.7
08:45 1020 30.12 849 25.07 15.5 59.9 42 2.8 37.1
08:50 1020 30.12 849 25.07 16.2 61.2 40 2.9 37.2
08:55 1020 30.12 849 25.07 16.1 61.1 37 1.6 34.9
09:00 1020 30.12 849 25.07 16 60.7 38 1.6 35
09:05 1020 30.12 849 25.07 16.4 61.6 38 2 35.6
09:10 1020 30.12 849 25.07 16.5 61.8 38 2.2 36
09:15 1020 30.12 849 25.07 17.2 63 36 2 35.6
09:20 1020 30.12 849 25.07 16.8 62.2 40 3.2 37.7
09:25 1020 30.12 849 25.07 16.3 61.3 39 2.5 36.4
09:30 1020 30.12 849 25.07 16.6 62 38 2.2 36
09:35 1020 30.12 849 25.07 17.5 63.4 35 2.1 35.8
09:40 1020 30.12 849 25.07 17.3 63.2 37 2.5 36.5
09:45 1020 30.12 849 25.07 17.4 63.4 35 2.1 35.7
09:50 1020 30.12 849 25.07 17.8 64 37 2.9 37.2
09:55 1020 30.12 849 25.07 17.9 64.2 34 2 35.5
10:00 1020 30.12 849 25.07 18.1 64.6 36 2.8 37
10:05 1020 30.12 849 25.07 18.4 65.2 33 1.9 35.4
10:10 1020 30.12 849 25.07 18.7 65.7 33 2.4 36.3
10:15 1020 30.12 849 25.07 17.6 63.6 36 2.6 36.7
10:20 1019 30.09 849 25.07 17.9 64.1 34 1.8 35.2
10:25 1019 30.09 849 25.07 19.1 66.3 33 2.4 36.3
10:30 1019 30.09 849 25.07 19.6 67.2 32 2.6 36.6
10:35 1019 30.09 849 25.07 19.2 66.6 34 3.2 37.7
10:40 1019 30.09 848 25.04 19.2 66.5 33 2.7 36.9
10:45 1019 30.09 848 25.04 20.2 68.3 29 1.9 35.3
10:50 1019 30.09 848 25.04 20.8 69.4 30 2.8 37.1
10:55 1019 30.09 848 25.04 19.7 67.4 32 2.7 36.8
11:00 1019 30.09 848 25.04 19.9 67.8 31 2.5 36.6
11:05 1019 30.09 848 25.04 20.2 68.3 31 2.8 37
11:10 1019 30.09 848 25.04 20.8 69.4 31 3.2 37.8
11:15 1019 30.09 848 25.04 21.2 70.2 29 2.7 36.8
11:20 1019 30.09 848 25.04 21.6 70.8 29 3 37.3
11:25 1019 30.09 848 25.04 22 71.5 29 3.5 38.4
11:30 1019 30.09 848 25.04 21.8 71.2 30 3.4 38.1
11:35 1019 30.09 848 25.04 20.8 69.5 30 2.7 36.9
11:40 1019 30.09 848 25.04 21.6 70.8 28 2.7 36.8
11:45 1018 30.06 848 25.04 21.1 70 29 2.6 36.6
11:50 1018 30.06 848 25.04 22.3 72.1 26 2.1 35.8
11:55 1018 30.06 848 25.04 22.4 72.2 28 3.4 38.1
12:00 1018 30.06 848 25.04 22 71.6 27 2.6 36.6
12:05 1018 30.06 848 25.04 22.3 72.2 28 2.9 37.3
12:10 1018 30.06 847 25.01 22.5 72.5 27 3 37.4
12:15 1018 30.06 847 25.01 22.9 73.2 26 2.7 36.9
12:20 1018 30.06 847 25.01 22.9 73.2 27 2.9 37.3
12:25 1018 30.06 847 25.01 23.3 74 26 3.1 37.6
12:30 1018 30.06 847 25.01 23.6 74.5 24 2 35.6
12:35 1018 30.06 847 25.01 23.6 74.4 26 3.3 38
12:40 1018 30.06 847 25.01 23.1 73.7 26 2.7 36.9
12:45 1018 30.06 847 25.01 23.7 74.6 26 3.1 37.5
12:50 1018 30.06 847 25.01 24.1 75.3 24 2.6 36.7
12:55 1018 30.06 847 25.01 24.4 75.9 23 2.4 36.3
13:00 1018 30.06 847 25.01 24.3 75.7 23 2.2 35.9
13:05 1018 30.06 847 25.01 24.6 76.2 23 2.5 36.4
13:10 1018 30.06 847 25.01 24.5 76.2 24 2.9 37.2
13:15 1017 30.03 847 25.01 24.1 75.3 23 1.9 35.4
13:20 1017 30.03 847 25.01 24.4 75.9 23 2.2 35.9
13:25 1017 30.03 847 25.01 25 77 21 1.1 34
13:30 1017 30.03 847 25.01 24.6 76.3 21 1.4 34.5
13:35 1017 30.03 847 25.01 24.5 76 24 2.6 36.7
13:40 1017 30.03 847 25.01 24.8 76.7 21 1.1 34
13:45 1017 30.03 846 24.98 25.3 77.5 21 1.7 35.1
13:50 1017 30.03 846 24.98 24.9 76.8 22 1.9 35.3
13:55 1017 30.03 846 24.98 24.9 76.9 21 1.3 34.4
14:00 1017 30.03 846 24.98 24.1 75.4 22 1.3 34.3
14:05 1017 30.03 846 24.98 25.2 77.3 21 1.4 34.6
14:10 1017 30.03 846 24.98 25.5 78 20 1.1 34
14:15 1017 30.03 846 24.98 25.5 77.9 21 1.9 35.4
14:20 1017 30.03 846 24.98 25.6 78 19 0.8 33.4
14:25 1017 30.03 846 24.98 25.4 77.7 20 1.2 34.2
14:30 1017 30.03 846 24.98 25.7 78.2 20 1.2 34.2
14:35 1017 30.03 846 24.98 26 78.7 18 -0.2 31.7
14:40 1017 30.03 846 24.98 25.9 78.5 17 -0.8 30.6
14:45 1017 30.03 846 24.98 25.2 77.3 18 -0.4 31.3
14:50 1016 30 846 24.98 25.6 78.1 18 -0.3 31.4
14:55 1016 30 846 24.98 25.9 78.6 18 0.3 32.5
15:00 1016 30 846 24.98 26.2 79.1 17 -0.4 31.3
15:05 1016 30 845 24.95 26.3 79.3 15 -2.4 27.7
15:10 1016 30 845 24.95 26 78.9 14 -3 26.7
15:15 1016 30 845 24.95 25.9 78.5 15 -2.6 27.2
15:20 1016 30 845 24.95 25.9 78.5 15 -2.9 26.7
15:25 1016 30 845 24.95 26.2 79.2 15 -2.6 27.4
15:30 1016 30 845 24.95 26.1 79 15 -2.5 27.5
15:35 1016 30 845 24.95 26.1 79 15 -2.4 27.6
15:40 1016 30 845 24.95 26.1 79 14 -3.3 26.1
15:45 1016 30 845 24.95 25.9 78.7 14 -2.9 26.8
15:50 1016 30 845 24.95 25.9 78.5 14 -3.1 26.5
15:55 1016 30 845 24.95 25.8 78.4 14 -3.3 26
16:00 1016 30 845 24.95 26 78.8 14 -3.7 25.3
16:05 1016 30 845 24.95 26 78.8 14 -3.6 25.5
16:10 1016 30 845 24.95 26.1 79 13 -4.5 24
16:15 1016 30 845 24.95 25.8 78.5 14 -3.9 25
16:20 1016 30 845 24.95 25.8 78.5 14 -3.9 25
16:25 1016 30 845 24.95 25.8 78.5 13 -4.1 24.7
16:30 1016 30 845 24.95 25.8 78.4 13 -4 24.7
16:35 1016 30 845 24.95 25.9 78.6 13 -4.2 24.4
16:40 1016 30 845 24.95 25.9 78.5 14 -3.8 25.2
16:45 1016 30 845 24.95 25.9 78.6 14 -3.9 25
16:50 1016 30 845 24.95 25.8 78.5 14 -3.5 25.7
16:55 1016 30 845 24.95 25.7 78.3 13 -4.1 24.6
17:00 1016 30 845 24.95 25.6 78 13 -4.4 24.2
17:05 1016 30 845 24.95 25.6 78 14 -3.7 25.4
17:10 1016 30 845 24.95 25.5 77.9 14 -3.4 25.9
17:15 1016 30 845 24.95 25.4 77.7 14 -3.4 25.9
17:20 1016 30 845 24.95 25.6 78 14 -3.8 25.2
17:25 1016 30 845 24.95 25.4 77.7 15 -3.2 26.3
17:30 1016 30 845 24.95 25.1 77.2 15 -3.5 25.7
17:35 1016 30 845 24.95 24.9 76.7 15 -2.9 26.8
17:40 1016 30 845 24.95 24.7 76.4 15 -3.3 26.1
17:45 1016 30 845 24.95 24.6 76.2 15 -3.5 25.6
17:50 1016 30 845 24.95 24.5 76.1 15 -3.6 25.6
17:55 1016 30 845 24.95 24.5 76.1 16 -2.9 26.9
18:00 1016 30 845 24.95 24.3 75.7 18 -1.6 29.1
18:05 1016 30 845 24.95 24.2 75.5 17 -2.1 28.3
18:10 1015 29.97 845 24.95 24 75.3 18 -1.6 29.1
18:15 1015 29.97 845 24.95 23.8 74.9 17 -2.4 27.6
18:20 1016 30 845 24.95 23.7 74.7 15 -4.4 24.1
18:25 1016 30 845 24.95 24 75.1 15 -4.3 24.3
18:30 1016 30 845 24.95 23.8 74.9 16 -3 26.6
18:35 1016 30 845 24.95 23.6 74.4 17 -2.6 27.3
18:40 1016 30 845 24.95 23.3 74 17 -2.6 27.2
18:45 1016 30 845 24.95 23.2 73.7 18 -2 28.4
18:50 1016 30 845 24.95 22.9 73.2 19 -1.8 28.8
18:55 1016 30 845 24.95 22.5 72.5 19 -2.1 28.3
19:00 1016 30 845 24.95 22.3 72.1 20 -1.4 29.5
19:05 1016 30 845 24.95 21.9 71.4 22 -0.9 30.4
19:10 1016 30 845 24.95 21.2 70.2 26 1.4 34.4
19:15 1016 30 845 24.95 20.2 68.4 29 1.8 35.3
19:20 1016 30 845 24.95 19.6 67.2 30 1.5 34.7
19:25 1016 30 845 24.95 19.1 66.3 30 1 33.8
19:30 1016 30 845 24.95 18.8 65.9 29 0.7 33.2
19:35 1016 30 845 24.95 18.5 65.3 29 0.3 32.5
19:40 1016 30 845 24.95 18.3 65 29 0.1 32.2
19:45 1016 30 845 24.95 18.2 64.8 29 0.1 32.1
19:50 1016 30 845 24.95 18 64.4 30 0.2 32.3
19:55 1016 30 845 24.95 17.9 64.2 29 -0.1 31.9
20:00 1016 30 845 24.95 17.9 64.2 29 -0.4 31.3
20:05 1016 30 845 24.95 18.2 64.8 26 -1.3 29.6
20:10 1016 30 845 24.95 18.8 65.8 26 -1.1 30.1
20:15 1016 30 845 24.95 18.8 65.8 26 -1.1 30.1
20:20 1016 30 845 24.95 18.7 65.7 26 -0.8 30.5
20:25 1016 30 845 24.95 18.8 65.8 26 -0.8 30.6
20:30 1016 30 845 24.95 18.5 65.4 26 -1.1 30.1
20:35 1016 30 845 24.95 18.4 65.2 27 -0.7 30.7
20:40 1016 30 845 24.95 18.3 64.9 27 -1.1 30
20:45 1016 30 845 24.95 18.3 64.9 27 -0.7 30.7
20:50 1016 30 845 24.95 18.1 64.7 28 -0.8 30.6
20:55 1016 30 845 24.95 18 64.5 28 -0.7 30.7
21:00 1016 30 845 24.95 18 64.4 28 -0.8 30.6
21:05 1016 30 845 24.95 17.9 64.1 28 -0.9 30.3
21:10 1016 30 845 24.95 17.6 63.7 29 -0.6 31
21:15 1016 30 845 24.95 17.4 63.4 29 -0.7 30.7
21:20 1016 30 845 24.95 17.2 62.9 30 -0.4 31.4
21:25 1016 30 845 24.95 16.9 62.4 31 -0.4 31.2
21:30 1016 30 845 24.95 16.7 62.1 30 -0.8 30.6
21:35 1016 30 845 24.95 16.9 62.3 30 -0.7 30.8
21:40 1016 30 845 24.95 16.8 62.2 30 -0.7 30.7
21:45 1016 30 845 24.95 16.8 62.3 30 -0.9 30.4
21:50 1016 30 845 24.95 16.9 62.5 29 -0.9 30.3
21:55 1016 30 845 24.95 17 62.6 30 -0.7 30.7
22:00 1016 30 845 24.95 16.9 62.4 29 -1.3 29.6
22:05 1016 30 845 24.95 17 62.6 31 -0.2 31.6
22:10 1016 30 845 24.95 16.3 61.3 37 1.6 34.9
22:15 1016 30 845 24.95 15.1 59.2 38 1 33.9
22:20 1016 30 845 24.95 14.9 58.7 38 0.6 33.1
22:25 1016 30 845 24.95 14.9 58.9 37 0.4 32.7
22:30 1016 30 845 24.95 15.1 59.1 35 -0.3 31.5
22:35 1016 30 845 24.95 15.3 59.5 35 -0.1 31.9
22:40 1016 30 845 24.95 15.2 59.4 35 0 32
22:45 1016 30 845 24.95 15.2 59.4 35 -0.1 31.9
22:50 1016 30 845 24.95 15.2 59.3 36 0.4 32.8
22:55 1016 30 845 24.95 15.2 59.3 34 -0.5 31.1
23:00 1016 30 845 24.95 15.6 60 31 -1.2 29.8
23:05 1016 30 845 24.95 16.1 61.1 30 -1.4 29.4
23:10 1016 30 845 24.95 16.4 61.6 30 -1.2 29.8
23:15 1016 30 845 24.95 16.4 61.5 29 -1.4 29.5
23:20 1016 30 845 24.95 16.3 61.3 30 -1.1 30
23:25 1016 30 845 24.95 16.2 61.2 29 -1.6 29.2
23:30 1016 30 845 24.95 16.1 61.1 33 -0.2 31.7
23:35 1016 30 845 24.95 15.4 59.8 32 -1 30.2
23:40 1016 30 845 24.95 15.3 59.6 36 0.5 32.8
23:45 1016 30 845 24.95 14.8 58.7 34 -0.7 30.7
23:50 1016 30 845 24.95 14.5 58.1 35 -0.7 30.7
23:55 1016 30 845 24.95 14.1 57.4 39 0.3 32.5
24:00 1016 30 845 24.95 13.7 56.7 37 -0.7 30.8